Pinsk, Belarus
Current Conditions -  °F | °C
As of 5:00 PM on Sunday 21 Dec 2014 (Local Time) from UKLR Reporting Station
Scattered Clouds Scattered Clouds  
Wind Chill: 27°   Ceiling: Unl
Heat Index: 36°   Visibility: 6mi
Dew Point: 32°   Wind: 13mph
Humidity: 87%   Direction: 290°WNW
Pressure: 29.94"   Gusts: NA
Location:  52.12°N, 26.1°E
Report Text: UKLR 211500Z 29006MPS 9999 FEW027CB SCT027 02/M00 Q1014 NOSIG
Loading
Personal Weather Stations






























Interactive Weather Map New forecast layout! Learn more

10-Day Weather Forecast

Advertisements
Track Severe Weather on mobile